createdAt,value
2022-12-29T00:01:43.603Z,100050.41
2022-12-29T00:04:15.757Z,100053.28
2022-12-29T00:06:44.000Z,100050.03
2022-12-29T00:09:13.694Z,100041.88
2022-12-29T00:11:41.330Z,100056.25
2022-12-29T00:14:29.824Z,100045.06
2022-12-29T00:16:57.769Z,100040.22
2022-12-29T00:19:57.532Z,100039.41
2022-12-29T00:22:44.258Z,100037.03
2022-12-29T00:25:32.352Z,100024.84
2022-12-29T00:28:18.615Z,100032.97
2022-12-29T00:31:04.264Z,100036.72
2022-12-29T00:33:52.339Z,100044.19
2022-12-29T00:36:24.506Z,100038.00
2022-12-29T00:39:23.407Z,100030.84
2022-12-29T00:42:08.989Z,100038.00
2022-12-29T00:44:36.046Z,100036.16
2022-12-29T00:47:04.377Z,100035.59
2022-12-29T00:49:33.292Z,100045.00
2022-12-29T00:52:07.993Z,100038.63
2022-12-29T00:54:38.220Z,100035.53
2022-12-29T00:57:07.466Z,100027.56
2022-12-29T00:59:40.777Z,100035.72
2022-12-29T01:02:09.088Z,100024.53
2022-12-29T01:04:36.642Z,100023.22
2022-12-29T01:07:03.893Z,100017.16
2022-12-29T01:09:50.708Z,100012.38
2022-12-29T01:12:17.952Z,100002.28
2022-12-29T01:14:45.336Z,100001.41
2022-12-29T01:17:12.368Z,99998.25
2022-12-29T01:19:39.580Z,100005.34
2022-12-29T01:22:06.585Z,99995.03
2022-12-29T01:24:34.345Z,99995.56
2022-12-29T01:27:01.316Z,100000.81
2022-12-29T01:29:28.371Z,100003.06
2022-12-29T01:31:55.396Z,99993.63
2022-12-29T01:34:22.483Z,99990.91
2022-12-29T01:36:49.486Z,99988.28
2022-12-29T01:39:16.507Z,99990.00
2022-12-29T01:41:43.509Z,99982.69
2022-12-29T01:45:03.467Z,99980.47
2022-12-29T01:47:47.051Z,99970.50
2022-12-29T01:50:36.872Z,99971.56
2022-12-29T01:53:21.563Z,99974.88
2022-12-29T01:55:55.669Z,99967.28
2022-12-29T01:58:28.165Z,99967.88
2022-12-29T02:00:55.649Z,99960.81
2022-12-29T02:03:25.627Z,99959.53
2022-12-29T02:06:04.818Z,99949.28
2022-12-29T02:08:32.075Z,99960.19
2022-12-29T02:11:01.641Z,99951.91
2022-12-29T02:13:29.459Z,99964.22
2022-12-29T02:16:46.808Z,99966.91
2022-12-29T02:19:50.802Z,99974.53
2022-12-29T02:22:59.252Z,99966.47
2022-12-29T02:26:17.345Z,99963.56
2022-12-29T02:29:30.629Z,99952.38
2022-12-29T02:32:09.179Z,99953.44
2022-12-29T02:34:57.446Z,99959.06
2022-12-29T02:37:50.797Z,99971.16
2022-12-29T02:40:33.095Z,99964.38
2022-12-29T02:43:03.972Z,99967.28
2022-12-29T02:45:44.966Z,99978.81
2022-12-29T02:48:40.054Z,99975.94
2022-12-29T02:51:52.720Z,99973.94
2022-12-29T02:54:41.303Z,99961.13
2022-12-29T02:57:23.115Z,99978.56
2022-12-29T03:00:09.530Z,99974.00
2022-12-29T03:03:35.919Z,99971.31
2022-12-29T03:06:40.370Z,99975.25
2022-12-29T03:09:21.652Z,99972.19
2022-12-29T03:12:20.439Z,99966.69
2022-12-29T03:15:33.325Z,99966.56
2022-12-29T03:18:16.529Z,99961.81
2022-12-29T03:20:59.058Z,99945.50
2022-12-29T03:23:28.940Z,99919.97
2022-12-29T03:26:02.700Z,99922.34
2022-12-29T03:28:36.886Z,99917.56
2022-12-29T03:31:05.726Z,99904.00
2022-12-29T03:33:33.802Z,99909.41
2022-12-29T03:36:07.372Z,99899.69
2022-12-29T03:38:47.043Z,99888.06
2022-12-29T03:41:21.536Z,99876.41
2022-12-29T03:43:48.972Z,99853.88
2022-12-29T03:46:16.077Z,99867.47
2022-12-29T03:48:43.164Z,99912.00
2022-12-29T03:51:10.387Z,99908.25
2022-12-29T03:53:37.439Z,99901.41
2022-12-29T03:56:04.866Z,99898.69
2022-12-29T03:58:31.853Z,99895.34
2022-12-29T04:00:59.092Z,99896.88
2022-12-29T04:03:26.144Z,99904.31
2022-12-29T04:05:53.193Z,99892.72
2022-12-29T04:08:20.216Z,99894.31
2022-12-29T04:10:48.770Z,99882.34
2022-12-29T04:13:15.736Z,99876.38
2022-12-29T04:15:46.271Z,99884.97
2022-12-29T04:18:14.361Z,99865.84
2022-12-29T04:21:00.463Z,99892.41
2022-12-29T04:23:29.049Z,99890.13
2022-12-29T04:25:56.099Z,99892.88
2022-12-29T04:28:23.192Z,99881.53
2022-12-29T04:30:50.697Z,99876.53
2022-12-29T04:33:19.139Z,99864.88
2022-12-29T04:35:47.263Z,99847.06
2022-12-29T04:38:14.723Z,99866.75
2022-12-29T04:40:44.220Z,99864.19
2022-12-29T04:43:11.580Z,99866.22
2022-12-29T04:45:38.676Z,99871.91
2022-12-29T04:48:06.376Z,99866.78
2022-12-29T04:50:33.408Z,99870.09
2022-12-29T04:53:00.451Z,99872.03
2022-12-29T04:55:27.579Z,99845.78
2022-12-29T04:57:54.652Z,99843.00
2022-12-29T05:00:21.893Z,99842.19
2022-12-29T05:02:49.140Z,99841.41
2022-12-29T05:05:16.853Z,99839.22
2022-12-29T05:07:43.945Z,99833.22
2022-12-29T05:10:12.052Z,99838.44
2022-12-29T05:12:39.850Z,99836.94
2022-12-29T05:15:12.088Z,99840.38
2022-12-29T05:17:39.103Z,99836.88
2022-12-29T05:20:07.991Z,99829.44
2022-12-29T05:22:35.175Z,99826.69
2022-12-29T05:25:02.222Z,99827.03
2022-12-29T05:27:29.288Z,99809.56
2022-12-29T05:29:56.344Z,99828.06
2022-12-29T05:32:23.393Z,99815.78
2022-12-29T05:34:50.757Z,99822.19
2022-12-29T05:37:18.041Z,99808.81
2022-12-29T05:39:45.460Z,99815.63
2022-12-29T05:42:12.511Z,99818.16
2022-12-29T05:44:39.653Z,99813.94
2022-12-29T05:47:06.764Z,99809.38
2022-12-29T05:49:33.959Z,99808.53
2022-12-29T05:52:01.007Z,99806.69
2022-12-29T05:54:27.981Z,99803.03
2022-12-29T05:56:55.058Z,99814.03
2022-12-29T05:59:22.075Z,99807.66
2022-12-29T06:01:49.236Z,99809.56
2022-12-29T06:04:16.438Z,99802.69
2022-12-29T06:06:44.487Z,99803.16
2022-12-29T06:09:12.059Z,99806.59
2022-12-29T06:11:39.133Z,99802.28
2022-12-29T06:14:06.138Z,99811.38
2022-12-29T06:16:33.189Z,99813.84
2022-12-29T06:19:00.240Z,99814.25
2022-12-29T06:21:27.282Z,99806.28
2022-12-29T06:23:54.651Z,99812.25
2022-12-29T06:26:21.858Z,99808.06
2022-12-29T06:28:48.879Z,99809.72
2022-12-29T06:31:15.944Z,99811.50
2022-12-29T06:33:45.228Z,99815.84
2022-12-29T06:36:15.385Z,99814.88
2022-12-29T06:38:42.571Z,99824.72
2022-12-29T06:41:09.588Z,99822.88
2022-12-29T06:43:39.113Z,99822.94
2022-12-29T06:46:06.771Z,99831.97
2022-12-29T06:48:33.959Z,99826.72
2022-12-29T06:51:01.185Z,99828.16
2022-12-29T06:53:28.348Z,99830.69
2022-12-29T06:55:55.416Z,99822.25
2022-12-29T06:58:22.617Z,99823.28
2022-12-29T07:00:49.907Z,99811.06
2022-12-29T07:03:17.004Z,99824.34
2022-12-29T07:05:44.167Z,99810.78
2022-12-29T07:08:11.198Z,99796.81
2022-12-29T07:10:38.236Z,99807.09
2022-12-29T07:13:05.340Z,99803.72
2022-12-29T07:15:32.349Z,99801.97
2022-12-29T07:17:59.424Z,99793.28
2022-12-29T07:20:27.376Z,99798.31
2022-12-29T07:22:54.855Z,99790.59
2022-12-29T07:25:22.003Z,99785.56
2022-12-29T07:27:49.734Z,99794.50
2022-12-29T07:30:16.971Z,99794.66
2022-12-29T07:32:44.494Z,99801.78
2022-12-29T07:35:11.523Z,99791.28
2022-12-29T07:37:38.575Z,99796.38
2022-12-29T07:40:06.436Z,99800.22
2022-12-29T07:42:33.513Z,99790.53
2022-12-29T07:45:01.335Z,99787.94
2022-12-29T07:47:28.696Z,99793.53
2022-12-29T07:49:55.794Z,99793.47
2022-12-29T07:52:22.789Z,99789.63
2022-12-29T07:54:49.826Z,99785.78
2022-12-29T07:57:17.009Z,99784.72
2022-12-29T07:59:44.461Z,99778.63
2022-12-29T08:02:15.200Z,99781.00
2022-12-29T08:04:42.249Z,99770.13
2022-12-29T08:07:09.265Z,99776.44
2022-12-29T08:09:36.281Z,99777.81
2022-12-29T08:12:03.415Z,99766.44
2022-12-29T08:14:30.398Z,99775.03
2022-12-29T08:16:57.470Z,99774.19
2022-12-29T08:19:24.576Z,99776.88
2022-12-29T08:21:52.295Z,99779.91
2022-12-29T08:24:19.300Z,99784.66
2022-12-29T08:26:46.335Z,99787.59
2022-12-29T08:29:13.455Z,99791.91
2022-12-29T08:31:40.513Z,99792.91
2022-12-29T08:34:07.605Z,99784.19
2022-12-29T08:36:34.765Z,99795.91
2022-12-29T08:39:01.925Z,99808.69
2022-12-29T08:41:29.183Z,99801.22
2022-12-29T08:43:56.273Z,99809.28
2022-12-29T08:46:23.559Z,99810.38
2022-12-29T08:48:50.671Z,99807.75
2022-12-29T08:51:22.850Z,99801.41
2022-12-29T08:53:52.007Z,99808.38
2022-12-29T08:56:19.391Z,99807.66
2022-12-29T08:58:46.494Z,99802.03
2022-12-29T09:01:13.556Z,99807.75
2022-12-29T09:06:27.650Z,99789.38
2022-12-29T09:08:55.926Z,99791.22
2022-12-29T09:11:26.023Z,99792.97
2022-12-29T09:13:54.728Z,99798.28
2022-12-29T09:16:24.672Z,99788.91
2022-12-29T09:18:51.987Z,99790.25
2022-12-29T09:21:19.241Z,99784.47
2022-12-29T09:23:46.366Z,99787.94
2022-12-29T09:26:13.434Z,99782.09
2022-12-29T09:28:41.220Z,99765.66
2022-12-29T09:31:08.606Z,99780.91
2022-12-29T09:33:35.866Z,99781.66
2022-12-29T09:36:03.302Z,99786.75
2022-12-29T09:38:30.438Z,99774.22
2022-12-29T09:41:25.379Z,99781.25
2022-12-29T09:44:12.618Z,99766.91
2022-12-29T09:46:45.984Z,99764.97
2022-12-29T09:49:40.964Z,99765.78
2022-12-29T09:52:32.168Z,99748.44
2022-12-29T09:55:10.661Z,99761.03
2022-12-29T09:58:03.306Z,99751.69
2022-12-29T10:00:39.601Z,99758.81
2022-12-29T10:03:18.880Z,99748.38
2022-12-29T10:06:32.739Z,99749.19
2022-12-29T10:09:35.000Z,99752.53
2022-12-29T10:12:49.153Z,99751.81
2022-12-29T10:16:37.745Z,99737.63
2022-12-29T10:19:22.345Z,99739.78
2022-12-29T10:22:16.411Z,99733.81
2022-12-29T10:24:47.476Z,99730.94
2022-12-29T10:27:17.878Z,99732.06
2022-12-29T10:29:56.047Z,99738.84
2022-12-29T10:32:36.017Z,99743.41
2022-12-29T10:35:22.763Z,99726.78
2022-12-29T10:38:22.160Z,99723.22
2022-12-29T10:41:21.844Z,99727.56
2022-12-29T10:43:52.686Z,99720.91
2022-12-29T10:46:31.565Z,99709.19
2022-12-29T10:48:58.567Z,99720.44
2022-12-29T10:51:31.393Z,99729.28
2022-12-29T10:54:33.848Z,99727.41
2022-12-29T10:57:14.844Z,99724.00
2022-12-29T10:59:43.216Z,99717.00
2022-12-29T11:02:13.216Z,99720.00
2022-12-29T11:05:05.924Z,99717.34
2022-12-29T11:07:32.996Z,99715.53
2022-12-29T11:10:35.215Z,99713.81
2022-12-29T11:13:16.371Z,99713.22
2022-12-29T11:15:49.383Z,99708.06
2022-12-29T11:18:23.913Z,99705.31
2022-12-29T11:21:01.254Z,99705.31
2022-12-29T11:23:41.448Z,99703.88
2022-12-29T11:26:33.808Z,99695.84
2022-12-29T11:29:24.487Z,99705.47
2022-12-29T11:32:00.347Z,99710.84
2022-12-29T11:34:34.820Z,99718.22
2022-12-29T11:37:13.072Z,99710.03
2022-12-29T11:39:47.715Z,99717.09
2022-12-29T11:42:23.152Z,99710.19
2022-12-29T11:44:52.546Z,99708.41
2022-12-29T11:47:37.645Z,99704.94
2022-12-29T11:50:08.344Z,99707.84
2022-12-29T11:52:40.588Z,99713.66
2022-12-29T11:55:23.232Z,99716.53
2022-12-29T21:05:23.727Z,99733.91
2022-12-29T21:07:52.144Z,99720.59
2022-12-29T21:10:19.540Z,99722.50
2022-12-29T21:12:47.718Z,99732.16
2022-12-29T21:15:15.663Z,99728.38
2022-12-29T21:17:46.122Z,99726.69
2022-12-29T21:20:20.024Z,99727.53
2022-12-29T21:22:50.137Z,99731.38
2022-12-29T21:25:17.215Z,99731.94
2022-12-29T21:27:44.360Z,99733.84
2022-12-29T21:30:12.358Z,99733.72
2022-12-29T21:32:40.564Z,99733.06
2022-12-29T21:35:09.326Z,99733.84
2022-12-29T21:37:36.988Z,99741.91
2022-12-29T21:40:04.766Z,99735.88
2022-12-29T21:42:32.000Z,99732.22
2022-12-29T21:45:20.687Z,99734.69
2022-12-29T21:48:07.339Z,99734.13
2022-12-29T21:50:58.269Z,99738.66
2022-12-29T21:53:37.756Z,99731.41
2022-12-29T21:56:15.983Z,99726.88
2022-12-29T21:59:09.906Z,99730.34
2022-12-29T22:01:57.277Z,99727.72
2022-12-29T22:04:44.655Z,99733.00
2022-12-29T22:07:31.878Z,99720.97
2022-12-29T22:10:17.696Z,99731.72
2022-12-29T22:13:03.480Z,99733.25
2022-12-29T22:15:37.287Z,99739.38
2022-12-29T22:18:05.262Z,99742.16
2022-12-29T22:20:35.816Z,99742.16
2022-12-29T22:23:03.423Z,99737.69
2022-12-29T22:25:30.684Z,99747.16
2022-12-29T22:27:59.887Z,99749.13
2022-12-29T22:30:30.083Z,99749.91
2022-12-29T22:32:59.035Z,99753.38
2022-12-29T22:35:26.133Z,99750.50
2022-12-29T22:37:53.349Z,99761.16
2022-12-29T22:40:20.736Z,99764.03
2022-12-29T22:42:47.726Z,99771.25
2022-12-29T22:45:15.202Z,99770.19
2022-12-29T22:47:42.284Z,99768.38
2022-12-29T22:50:10.194Z,99764.81
2022-12-29T22:52:37.451Z,99769.94
2022-12-29T22:55:07.282Z,99756.59
2022-12-29T22:57:35.704Z,99761.13
2022-12-29T23:00:06.695Z,99762.88
2022-12-29T23:02:34.126Z,99760.22
2022-12-29T23:05:04.471Z,99769.94
2022-12-29T23:07:35.650Z,99769.06
2022-12-29T23:10:05.005Z,99760.31
2022-12-29T23:12:32.595Z,99774.59
2022-12-29T23:14:59.703Z,99782.13
2022-12-29T23:17:26.873Z,99773.25
2022-12-29T23:19:54.283Z,99778.69
2022-12-29T23:22:23.010Z,99779.69
2022-12-29T23:24:50.176Z,99780.41
2022-12-29T23:27:17.583Z,99785.75
2022-12-29T23:29:44.658Z,99782.06
2022-12-29T23:32:11.684Z,99783.94
2022-12-29T23:34:38.711Z,99794.44
2022-12-29T23:37:05.844Z,99785.69
2022-12-29T23:39:32.866Z,99790.81
2022-12-29T23:41:59.859Z,99796.03
2022-12-29T23:44:26.928Z,99791.78
2022-12-29T23:46:54.040Z,99797.06
2022-12-29T23:49:21.137Z,99781.13
2022-12-29T23:51:48.326Z,99791.59
2022-12-29T23:54:15.394Z,99787.13
2022-12-29T23:56:42.441Z,99798.22
2022-12-29T23:59:09.501Z,99784.50
